Arnold, North Carolina
Current Conditions -  °F | °C
As of 7:35 PM on Friday 26 Dec 2014 (Local Time) from KEXX Reporting Station
Clear Clear  
Wind Chill:   Ceiling: Unl
Heat Index:   Visibility: 10mi
Dew Point:   Wind: 0mph
Humidity: 75%   Direction: NA
Pressure: 30.31"   Gusts: NA
Location:  35.7974°N, 80.2541°W
Report Text: KEXX 270035Z AUTO 00000KT 10SM CLR 05/01 A3031 RMK AO2 T00490008
Loading
Personal Weather Stations






























Interactive Weather Map New forecast layout! Learn more

10-Day Weather Forecast

Advertisements
Track Severe Weather on mobile